Cuyahoga Falls, Ohio
Current Conditions -  °F | °C
As of 10:05 AM on Thursday 23 Oct 2014 (Local Time) from KAKR Reporting Station
Scattered Clouds Scattered Clouds  
Wind Chill: 52°   Ceiling: Unl
Heat Index: 52°   Visibility: 10mi
Dew Point: 47°   Wind: 8mph
Humidity: 83%   Direction: 330°NNW
Pressure: 30.2"   Gusts: NA
Location:  41.14°N, 81.48°W
Report Text: KAKR 231405Z AUTO 33007KT 10SM SCT014 11/08 A3020 RMK AO2 T01110083
Loading
Personal Weather Stations






























Interactive Weather Map
Tropical Storm Tracking
New forecast layout! Learn more

10-Day Weather Forecast

Advertisements
Track Severe Weather on mobile